TimeCDT,TemperatureF,Dew PointF,Humidity,Sea Level PressureIn,VisibilityMPH,Wind Direction,Wind SpeedMPH,Gust SpeedMPH,PrecipitationIn,Events,Conditions,WindDirDegrees,DateUTC
12:52 AM,78.1,63.0,60,30.07,10.0,SSE,11.5,-,N/A,,Clear,150,2013-06-21 05:52:00
1:52 AM,77.0,64.0,64,30.08,10.0,SSE,11.5,-,N/A,,Mostly Cloudy,160,2013-06-21 06:52:00
2:52 AM,75.0,64.9,71,30.08,10.0,South,8.1,-,N/A,,Clear,170,2013-06-21 07:52:00
3:52 AM,75.0,66.0,73,30.07,10.0,South,10.4,-,N/A,,Partly Cloudy,170,2013-06-21 08:52:00
4:52 AM,73.9,66.9,79,30.08,10.0,South,9.2,-,N/A,,Clear,170,2013-06-21 09:52:00
5:52 AM,73.0,66.9,81,30.08,10.0,South,10.4,-,N/A,,Clear,170,2013-06-21 10:52:00
6:52 AM,75.0,68.0,79,30.09,10.0,South,10.4,-,N/A,,Clear,180,2013-06-21 11:52:00
7:52 AM,78.1,69.1,74,30.09,10.0,South,9.2,-,N/A,,Clear,180,2013-06-21 12:52:00
8:52 AM,82.0,69.1,65,30.08,10.0,South,10.4,-,N/A,,Clear,180,2013-06-21 13:52:00
9:52 AM,86.0,69.1,57,30.07,10.0,South,10.4,19.6,N/A,,Clear,180,2013-06-21 14:52:00
10:52 AM,88.0,68.0,51,30.08,10.0,South,17.3,23.0,N/A,,Scattered Clouds,190,2013-06-21 15:52:00
11:52 AM,89.1,68.0,50,30.07,10.0,SSW,15.0,-,N/A,,Partly Cloudy,210,2013-06-21 16:52:00
12:52 PM,89.1,69.1,52,30.06,10.0,SSW,11.5,-,N/A,,Scattered Clouds,210,2013-06-21 17:52:00
1:52 PM,91.0,69.1,48,30.06,10.0,South,10.4,19.6,N/A,,Scattered Clouds,190,2013-06-21 18:52:00
2:52 PM,90.0,70.0,52,30.03,10.0,South,13.8,-,N/A,,Mostly Cloudy,180,2013-06-21 19:52:00
3:52 PM,90.0,70.0,52,30.04,10.0,South,9.2,-,N/A,Thunderstorm,Thunderstorm,180,2013-06-21 20:52:00
4:41 PM,73.4,69.8,88,30.10,10.0,NNE,11.5,21.9,0.02,Rain-Thunderstorm,Light Thunderstorms and Rain,20,2013-06-21 21:41:00
4:52 PM,73.9,71.1,91,30.11,10.0,West,8.1,-,0.02,Rain-Thunderstorm,Light Thunderstorms and Rain,260,2013-06-21 21:52:00
5:17 PM,75.2,69.8,83,30.04,10.0,ESE,18.4,25.3,0.00,Thunderstorm,Thunderstorm,120,2013-06-21 22:17:00
5:52 PM,75.9,71.1,85,30.02,10.0,SE,11.5,-,0.00,,Clear,140,2013-06-21 22:52:00
6:52 PM,78.1,71.1,79,30.00,10.0,SE,9.2,-,N/A,,Clear,140,2013-06-21 23:52:00
7:52 PM,81.0,71.1,72,30.00,10.0,SSE,8.1,-,N/A,,Clear,150,2013-06-22 00:52:00
8:52 PM,84.0,69.1,61,29.98,10.0,South,15.0,-,N/A,,Clear,180,2013-06-22 01:52:00
9:52 PM,82.9,69.1,63,30.03,10.0,South,9.2,-,N/A,,Clear,180,2013-06-22 02:52:00
10:52 PM,80.1,70.0,71,30.05,10.0,South,5.8,-,N/A,,Clear,170,2013-06-22 03:52:00
11:52 PM,78.1,70.0,76,30.05,10.0,South,9.2,-,N/A,,Clear,170,2013-06-22 04:52:00